Flight Track Log - Related Links

Times and Time Zones

All times are in EDT time to prevent confusion due to time zone crossing. See the SWA4195 flight status page for this flight to view local times or setup timezone preferences in your user account.

Time Position Orientation Groundspeed Altitude Reporting Facility
EDT Latitude Longitude Course Direction KTS MPH feet Rate Location/Type
Sat 02:04:23 PM 33.4333 -111.9833 90° East 172 198 2,000  Level Phoenix TRACON
Sat 02:05:11 PM 33.4333 -111.9333 90° East 185 213 3,200 2,611 Climbing Phoenix TRACON
Sat 02:06:11 PM 33.4167 -111.8500 103° East 233 268 6,700 2,953 Climbing Phoenix TRACON
Sat 02:07:19 PM 33.3592 -111.8803 204° Southwest 246 283 9,500 2,215 Climbing Albuquerque Center
Sat 02:08:21 PM 33.3658 -111.9772 275° West 300 345 11,500 3,024 Climbing Albuquerque Center
Sat 02:09:22 PM 33.3750 -112.1097 275° West 333 383 15,700 3,122 Climbing Albuquerque Center
Sat 02:10:24 PM 33.3944 -112.2258 281° West 356 410 17,900 2,323 Climbing Albuquerque Center
Sat 02:11:26 PM 33.4064 -112.3600 276° West 383 441 20,500 2,439 Climbing Albuquerque Center
Sat 02:12:27 PM 33.4194 -112.4886 277° West 402 463 22,900 2,049 Climbing Albuquerque Center
Sat 02:13:29 PM 33.4331 -112.6275 277° West 410 472 24,700 1,839 Climbing Albuquerque Center
Sat 02:14:31 PM 33.4481 -112.7708 277° West 427 491 26,700 1,887 Climbing Albuquerque Center
Sat 02:15:33 PM 33.4703 -112.9164 280° West 437 503 28,600 1,610 Climbing Albuquerque Center
Sat 02:16:34 PM 33.5000 -113.0625 284° West 446 513 30,000 683 Climbing Albuquerque Center
Sat 02:17:36 PM 33.5344 -113.2469 283° West 460 529 30,000  Level Albuquerque Center
Sat 02:18:38 PM 33.5636 -113.4031 283° West 476 548 30,000  Level Albuquerque Center
Sat 02:19:39 PM 33.5942 -113.5550 284° West 468 539 30,000  Level Albuquerque Center
Sat 02:20:41 PM 33.6147 -113.7200 279° West 483 556 30,000  Level Albuquerque Center
Sat 02:21:45 PM 33.6297 -113.8778 277° West 483 556 30,000  Level Albuquerque Center
Sat 02:22:44 PM 33.6469 -114.0347 278° West 479 551 30,000  Level Albuquerque Center
Sat 02:23:46 PM 33.6658 -114.2194 277° West 478 550 30,000  Level Albuquerque Center
Sat 02:24:48 PM 33.6817 -114.3739 277° West 478 550 30,000  Level Los Angeles Center
Sat 02:25:50 PM 33.6975 -114.5319 277° West 478 550 30,000  Level Los Angeles Center
Sat 02:26:52 PM 33.7131 -114.6900 277° West 479 551 30,000  Level Los Angeles Center
Sat 02:27:55 PM 33.7331 -114.8811 277° West 479 551 30,000  Level Los Angeles Center
Sat 02:28:57 PM 33.7469 -115.0381 276° West 475 547 30,000  Level Los Angeles Center
Sat 02:29:59 PM 33.7625 -115.1958 277° West 476 548 30,000  Level Los Angeles Center
Sat 02:31:01 PM 33.7767 -115.3514 276° West 474 545 30,000  Level Los Angeles Center
Sat 02:32:03 PM 33.7900 -115.5092 276° West 474 545 30,000  Level Los Angeles Center
Sat 02:33:05 PM 33.8050 -115.6644 277° West 473 544 30,000  Level Los Angeles Center
Sat 02:34:07 PM 33.8206 -115.8533 276° West 474 545 30,000 -435 Level Los Angeles Center
Sat 02:35:09 PM 33.8344 -116.0092 276° West 473 544 29,100 -1,680 Descending Los Angeles Center
Sat 02:36:12 PM 33.8439 -116.1617 274° West 464 534 26,500 -2,544 Descending Los Angeles Center
Sat 02:37:14 PM 33.8550 -116.3092 275° West 448 516 23,800 -2,661 Descending Los Angeles Center
Sat 02:38:16 PM 33.8636 -116.4547 274° West 443 510 21,000 -3,029 Descending Los Angeles Center
Sat 02:38:59 PM 33.8667 -116.5833 272° West 370 426 18,500 -2,913 Descending Southern California TRACON
Sat 02:39:59 PM 33.8833 -116.7167 279° West 388 447 16,000 -2,450 Descending Southern California TRACON
Sat 02:40:59 PM 33.9000 -116.8500 279° West 393 452 13,600 -2,143 Descending Southern California TRACON
Sat 02:42:05 PM 33.9333 -116.9833 287° West 368 423 11,500 -1,636 Descending Southern California TRACON
Sat 02:43:00 PM 33.9667 -117.0833 292° West 325 374 10,300 -1,565 Descending Southern California TRACON
Sat 02:44:00 PM 34.0000 -117.1667 296° West 300 345 8,500 -1,600 Descending Southern California TRACON
Sat 02:45:00 PM 34.0167 -117.2667 281° West 293 337 7,100 -1,041 Descending Southern California TRACON
Sat 02:46:01 PM 34.0500 -117.3500 296° West 242 278 6,400 -1,041 Descending Southern California TRACON
Sat 02:47:01 PM 34.0500 -117.4167 270° West 191 220 5,000 -1,350 Descending Southern California TRACON
Sat 02:48:01 PM 34.0500 -117.4667 270° West 156 180 3,700 -1,438 Descending Southern California TRACON
Sat 02:49:02 PM 34.0500 -117.5167 270° West 142 163 2,100 -1,190 Descending Southern California TRACON
Sat 02:50:02 PM 34.0500 -117.5667 270° West 139 160 1,300 -800 Descending Southern California TRACON
Sat 02:52:00 PM 34.0500 -117.6000 277° West  Level FlightAware Approximate

Login

Don't have an account? Register now (free) for customized features, flight alerts, and more!